Time;durP1;ratioP1;P1;durP2;ratioP2;P2;SDS_P1;SDS_P2;PMS_P1;PMS_P2;Temp;Humidity;BMP_temperature;BMP_pressure;BME280_temperature;BME280_humidity;BME280_pressure;Samples;Min_cycle;Max_cycle;Signal;HPM_P1;HPM_P2
2021/12/20 00:01:36;;;;;;;;;21.50;21.00;;;;;7.47;75.55;101982.28;5038690;28;45729;-78
2021/12/20 00:04:01;;;;;;;;;30.25;22.75;;;;;7.49;75.65;101980.47;5036199;28;45729;-80
2021/12/20 00:06:27;;;;;;;;;26.50;20.50;;;;;7.44;75.61;101965.91;5041285;28;45923;-79
2021/12/20 00:08:52;;;;;;;;;27.25;24.00;;;;;7.42;75.52;101960.75;5043168;28;46446;-81
2021/12/20 00:11:18;;;;;;;;;25.50;21.50;;;;;7.53;75.49;101979.47;5044653;28;46079;-80
2021/12/20 00:13:44;;;;;;;;;26.00;21.50;;;;;7.52;75.39;101969.94;5135009;27;45813;-80
2021/12/20 00:16:09;;;;;;;;;25.75;22.50;;;;;7.56;75.54;101975.88;5128303;27;46359;-80
2021/12/20 00:18:34;;;;;;;;;25.00;23.75;;;;;7.56;75.40;101970.66;5128248;27;45947;-78
2021/12/20 00:21:00;;;;;;;;;22.75;19.75;;;;;7.32;75.49;101945.50;5128761;27;45776;-81
2021/12/20 00:23:26;;;;;;;;;24.25;20.00;;;;;7.45;75.40;101971.03;5123998;27;46416;-80
2021/12/20 00:25:51;;;;;;;;;23.50;21.75;;;;;7.46;75.54;101969.28;5129689;27;46450;-79
2021/12/20 00:28:19;;;;;;;;;21.00;19.00;;;;;7.31;75.40;101955.06;5128779;27;45860;-80
2021/12/20 00:30:45;;;;;;;;;24.25;21.75;;;;;7.43;75.49;101957.22;5141069;27;45682;-80
2021/12/20 00:33:11;;;;;;;;;22.75;19.75;;;;;7.46;75.55;101970.16;5129080;27;45594;-81
2021/12/20 00:35:37;;;;;;;;;22.75;19.25;;;;;7.45;75.31;101968.44;5113887;27;45808;-78
2021/12/20 00:40:48;;;;;;;;;23.50;20.75;;;;;7.42;75.25;101963.34;5115331;27;46095;-80
2021/12/20 00:43:14;;;;;;;;;23.00;18.25;;;;;7.46;75.24;101959.72;5115443;27;45613;-81
2021/12/20 00:45:40;;;;;;;;;23.00;21.50;;;;;7.46;75.29;101964.06;5118371;27;45882;-79
2021/12/20 00:48:06;;;;;;;;;23.00;21.00;;;;;7.41;75.23;101955.56;5126079;27;46185;-78
2021/12/20 00:50:33;;;;;;;;;25.50;18.75;;;;;7.48;75.16;101963.13;5120490;27;45734;-80
2021/12/20 00:52:59;;;;;;;;;27.50;21.75;;;;;7.50;75.29;101965.69;5115500;27;45663;-80
2021/12/20 00:55:27;;;;;;;;;25.50;21.75;;;;;7.50;75.23;101958.69;5099165;27;46218;-79
2021/12/20 00:57:54;;;;;;;;;23.25;22.25;;;;;7.53;75.31;101957.75;5127031;27;46139;-79
2021/12/20 01:00:23;;;;;;;;;18.25;17.75;;;;;7.53;75.14;101944.69;5118583;27;46170;-80
2021/12/20 01:02:50;;;;;;;;;23.25;19.00;;;;;7.54;75.16;101957.69;5124223;27;46625;-78
2021/12/20 01:05:16;;;;;;;;;22.75;17.00;;;;;7.55;75.34;101948.13;5117720;27;45912;-80
2021/12/20 01:07:41;;;;;;;;;25.75;22.50;;;;;7.44;75.17;101938.09;5114036;27;45887;-80
2021/12/20 01:10:09;;;;;;;;;21.25;18.25;;;;;7.54;75.11;101947.25;5098888;27;45919;-77
2021/12/20 01:12:46;;;;;;;;;24.75;17.75;;;;;7.55;75.34;101951.56;5114919;27;45720;-81
2021/12/20 01:15:15;;;;;;;;;20.50;18.00;;;;;7.40;75.42;101922.59;5118331;27;46371;-79
2021/12/20 01:17:41;;;;;;;;;22.00;18.25;;;;;7.53;75.19;101937.72;5113585;27;46137;-80
2021/12/20 01:20:07;;;;;;;;;20.25;17.00;;;;;7.42;75.11;101915.56;5116185;27;45579;-78
2021/12/20 01:22:33;;;;;;;;;25.00;20.25;;;;;7.50;75.21;101926.56;5114976;27;45778;-80
2021/12/20 01:24:58;;;;;;;;;23.00;18.00;;;;;7.55;75.28;101938.53;5114755;27;45831;-77
2021/12/20 01:27:24;;;;;;;;;21.50;15.25;;;;;7.55;75.32;101922.88;5113722;27;45725;-79
2021/12/20 01:29:49;;;;;;;;;20.00;17.75;;;;;7.56;75.12;101927.16;5114240;27;46976;-80
2021/12/20 01:32:14;;;;;;;;;23.00;19.00;;;;;7.57;75.22;101926.28;5114334;27;45571;-79
2021/12/20 01:34:40;;;;;;;;;23.00;17.00;;;;;7.57;75.09;101923.66;5121865;27;46506;-80
2021/12/20 01:37:05;;;;;;;;;24.25;18.50;;;;;7.49;75.20;101917.91;5123792;27;45701;-81
2021/12/20 01:39:31;;;;;;;;;20.00;17.00;;;;;7.57;75.02;101928.03;5123049;27;45698;-80
2021/12/20 01:41:58;;;;;;;;;18.50;14.75;;;;;7.43;75.06;101914.66;5102714;27;45841;-80
2021/12/20 01:44:24;;;;;;;;;21.25;19.00;;;;;7.31;75.04;101889.03;5121369;27;45696;-79
2021/12/20 01:46:49;;;;;;;;;19.50;18.50;;;;;7.46;75.02;101911.94;5115376;27;46297;-80
2021/12/20 01:49:16;;;;;;;;;21.50;19.00;;;;;7.47;75.11;101929.28;5125613;27;46216;-80
2021/12/20 01:52:01;;;;;;;;;26.75;19.50;;;;;7.53;75.17;101927.31;5126648;27;45712;-80
2021/12/20 01:54:27;;;;;;;;;22.50;18.75;;;;;7.53;75.11;101927.31;5113813;27;45756;-81
2021/12/20 01:56:52;;;;;;;;;29.25;22.75;;;;;7.54;75.05;101926.41;5120717;27;45759;-79
2021/12/20 01:59:18;;;;;;;;;23.00;20.50;;;;;7.54;75.09;101922.94;5113846;27;46239;-79
2021/12/20 02:01:45;;;;;;;;;19.25;17.50;;;;;7.54;74.98;101931.63;5113683;27;45669;-81
2021/12/20 02:04:11;;;;;;;;;24.25;18.50;;;;;7.55;74.91;101922.88;5116533;27;46472;-80
2021/12/20 02:06:44;;;;;;;;;25.75;19.75;;;;;7.57;74.86;101926.28;5117516;27;46573;-79
2021/12/20 02:09:15;;;;;;;;;26.75;19.00;;;;;7.59;74.86;101923.63;5121235;27;45653;-79
2021/12/20 02:11:49;;;;;;;;;19.00;17.50;;;;;7.55;74.97;101906.41;5118092;27;45645;-80
2021/12/20 02:14:16;;;;;;;;;20.50;18.00;;;;;7.58;74.73;101917.53;5098586;27;46447;-79
2021/12/20 02:16:43;;;;;;;;;23.50;19.00;;;;;7.56;74.70;101905.47;5120777;27;46142;-80
2021/12/20 02:19:12;;;;;;;;;33.75;22.75;;;;;7.46;74.71;101889.31;5113470;27;47024;-81
2021/12/20 02:21:38;;;;;;;;;26.75;20.75;;;;;7.60;74.66;101912.28;5122569;27;45730;-81
2021/12/20 02:24:04;;;;;;;;;29.25;22.75;;;;;7.58;74.63;101914.94;5113657;27;46349;-81
2021/12/20 02:26:30;;;;;;;;;26.50;22.25;;;;;7.52;74.79;101912.56;5119619;27;46751;-81
2021/12/20 02:29:01;;;;;;;;;25.50;19.75;;;;;7.58;74.57;101914.09;5116086;27;45703;-79
2021/12/20 02:37:18;;;;;;;;;29.50;27.00;;;;;7.62;74.51;101905.22;5112798;27;46249;-82
2021/12/20 02:39:44;;;;;;;;;34.50;27.50;;;;;7.58;74.50;101899.28;5118338;27;45643;-81
2021/12/20 02:42:17;;;;;;;;;36.75;32.25;;;;;7.62;74.50;101905.22;5113521;27;45822;-80
2021/12/20 02:44:59;;;;;;;;;34.50;30.25;;;;;7.59;74.52;101902.75;5121704;27;46773;-80
2021/12/20 02:47:29;;;;;;;;;31.50;26.00;;;;;7.66;74.55;101908.59;5114535;27;47287;-80
2021/12/20 02:49:55;;;;;;;;;30.25;24.50;;;;;7.62;74.40;101904.38;5129298;27;45886;-81
2021/12/20 02:52:21;;;;;;;;;35.00;30.00;;;;;7.65;74.59;101907.75;5122225;27;45705;-80
2021/12/20 02:54:46;;;;;;;;;40.50;31.00;;;;;7.63;74.49;101904.31;5113901;27;45701;-79
2021/12/20 02:57:12;;;;;;;;;33.00;28.75;;;;;7.63;74.53;101906.94;5112145;27;46206;-81
2021/12/20 02:59:38;;;;;;;;;36.00;30.00;;;;;7.64;74.40;101910.41;5113090;27;45713;-80
2021/12/20 03:02:07;;;;;;;;;32.00;27.75;;;;;7.62;74.53;101905.22;5113401;27;45835;-80
2021/12/20 03:04:33;;;;;;;;;30.25;28.25;;;;;7.51;74.38;101887.38;5120749;27;47139;-80
2021/12/20 03:07:02;;;;;;;;;33.00;30.50;;;;;7.56;74.40;101882.84;5113078;27;45808;-78
2021/12/20 03:09:32;;;;;;;;;36.75;31.25;;;;;7.59;74.39;101897.53;5112902;27;46041;-78
2021/12/20 03:12:03;;;;;;;;;33.50;27.25;;;;;7.56;74.31;101888.06;5119767;27;45637;-81
2021/12/20 03:14:35;;;;;;;;;33.75;29.75;;;;;7.54;74.34;101883.81;5114981;27;46569;-79
2021/12/20 03:17:01;;;;;;;;;37.00;30.00;;;;;7.47;74.53;101870.16;5097816;27;48217;-80
2021/12/20 03:19:28;;;;;;;;;37.00;30.75;;;;;7.45;74.44;101855.50;5120631;27;45977;-80
2021/12/20 03:21:55;;;;;;;;;42.25;33.75;;;;;7.62;74.36;101880.91;5120433;27;45842;-81
2021/12/20 03:24:20;;;;;;;;;48.75;34.25;;;;;7.61;73.97;101874.03;5113464;27;45991;-81
2021/12/20 03:26:46;;;;;;;;;39.75;35.75;;;;;7.67;73.93;101884.19;5098553;27;47102;-81
2021/12/20 03:29:12;;;;;;;;;35.75;31.50;;;;;7.63;74.33;101875.63;5115309;27;45856;-80
2021/12/20 03:31:38;;;;;;;;;34.50;28.25;;;;;7.64;74.17;101886.94;5113068;27;46073;-81
2021/12/20 03:34:05;;;;;;;;;32.75;27.00;;;;;7.61;74.28;101879.22;5112347;27;47596;-79
2021/12/20 03:36:31;;;;;;;;;34.75;29.75;;;;;7.58;74.40;101880.19;5111326;27;47091;-81
2021/12/20 03:38:58;;;;;;;;;29.75;25.25;;;;;7.47;74.25;101861.50;5117801;27;45804;-80
2021/12/20 03:41:24;;;;;;;;;37.75;30.75;;;;;7.46;74.22;101851.97;5112418;27;45835;-81
2021/12/20 03:43:50;;;;;;;;;35.75;31.50;;;;;7.54;74.17;101866.44;5111952;27;45875;-79
2021/12/20 03:46:16;;;;;;;;;30.00;27.00;;;;;7.22;74.24;101811.19;5094663;27;45866;-80
2021/12/20 03:48:41;;;;;;;;;33.25;32.25;;;;;7.53;74.16;101867.31;5112942;27;46051;-80
2021/12/20 03:51:07;;;;;;;;;36.75;33.25;;;;;7.41;74.08;101841.72;5112092;27;46061;-81
2021/12/20 03:53:36;;;;;;;;;28.75;24.75;;;;;7.28;74.09;101819.66;5112401;27;46735;-81
2021/12/20 03:56:04;;;;;;;;;33.00;30.50;;;;;7.52;74.18;101857.81;5112175;27;46149;-80
2021/12/20 03:58:34;;;;;;;;;35.00;29.00;;;;;7.41;74.16;101840.88;5114302;27;46072;-80
2021/12/20 04:01:04;;;;;;;;;31.00;26.00;;;;;7.45;74.08;101858.13;5108159;27;45651;-80
2021/12/20 04:03:33;;;;;;;;;33.00;23.50;;;;;7.47;74.05;101862.34;5115207;27;45745;-80
2021/12/20 04:05:58;;;;;;;;;30.25;28.00;;;;;7.46;73.99;101862.41;5105795;27;47369;-80
2021/12/20 04:08:46;;;;;;;;;38.00;28.75;;;;;7.42;74.44;101851.25;5112178;27;45493;-81
2021/12/20 04:14:01;;;;;;;;;34.00;28.50;;;;;7.39;73.99;101848.75;5115875;27;46695;-81
2021/12/20 04:16:26;;;;;;;;;29.25;23.00;;;;;7.48;74.10;101865.81;5101294;27;48385;-81
2021/12/20 04:19:05;;;;;;;;;;;;;;;;;;;;;
2021/12/20 04:21:51;;;;;;;;;27.25;23.50;;;;;7.32;73.71;101849.03;5116059;27;68922;-81
2021/12/20 04:24:17;;;;;;;;;30.25;25.25;;;;;6.82;73.95;101771.00;5116379;27;46555;-79
2021/12/20 04:26:51;;;;;;;;;30.00;24.75;;;;;6.84;74.00;101789.19;5117508;27;46112;-81
2021/12/20 04:33:30;;;;;;;;;34.50;28.25;;;;;7.42;73.92;101874.72;4955849;28;45857;-82
2021/12/20 04:40:08;;;;;;;;;35.50;27.50;;;;;7.46;73.86;101871.06;4809114;29;45804;-79
2021/12/20 04:43:14;;;;;;;;;;;;;;;;;;;;;
2021/12/20 04:49:31;;;;;;;;;33.75;28.75;;;;;7.29;74.14;101830.94;4808266;29;45929;-79
2021/12/20 04:52:00;;;;;;;;;37.00;31.00;;;;;7.36;73.96;101837.59;4802772;29;46404;-79
2021/12/20 04:54:27;;;;;;;;;32.50;22.00;;;;;7.32;73.86;101831.66;4800076;29;45703;-81
2021/12/20 04:56:56;;;;;;;;;33.75;29.25;;;;;7.53;73.89;101864.72;4796279;29;45925;-82
2021/12/20 04:59:24;;;;;;;;;30.50;26.00;;;;;7.25;73.72;101821.50;4790229;29;45815;-80
2021/12/20 05:01:49;;;;;;;;;28.25;24.75;;;;;7.48;73.89;101865.81;4789475;29;46419;-80
2021/12/20 05:04:14;;;;;;;;;34.50;30.25;;;;;7.55;73.93;101867.28;4791121;29;45719;-80
2021/12/20 05:06:41;;;;;;;;;29.75;26.75;;;;;7.47;73.94;101851.91;4793275;29;45845;-81
2021/12/20 05:09:07;;;;;;;;;39.50;30.00;;;;;7.43;73.81;101839.91;4790194;29;49244;-80
2021/12/20 05:11:36;;;;;;;;;44.25;36.25;;;;;7.53;73.74;101869.94;4843473;29;46502;-80
2021/12/20 05:14:02;;;;;;;;;32.75;27.25;;;;;7.58;73.84;101861.94;4859198;29;45762;-82
2021/12/20 05:23:14;;;;;;;;;30.25;26.75;;;;;6.97;73.82;101775.63;4902931;28;46227;-81
2021/12/20 05:25:44;;;;;;;;;34.25;29.50;;;;;7.31;73.82;101829.09;4894471;28;46122;-80
2021/12/20 05:28:15;;;;;;;;;37.25;29.75;;;;;7.44;73.89;101854.66;4936965;28;46038;-80
2021/12/20 05:30:48;;;;;;;;;32.25;26.25;;;;;7.50;74.01;101866.59;4974845;28;45798;-81
2021/12/20 05:37:10;;;;;;;;;46.00;33.00;;;;;7.46;73.84;101876.28;4871924;29;46023;-81
2021/12/20 05:39:42;;;;;;;;;30.00;26.50;;;;;6.91;73.74;101770.66;4815578;29;46372;-81
2021/12/20 05:47:48;;;;;;;;;33.25;28.75;;;;;7.30;73.67;101836.06;4831225;29;46325;-80
2021/12/20 05:50:17;;;;;;;;;28.75;23.00;;;;;7.57;73.83;101873.25;4803071;29;45990;-79
2021/12/20 05:52:42;;;;;;;;;34.00;23.25;;;;;7.61;73.90;101871.41;4819283;29;46401;-79
2021/12/20 05:55:10;;;;;;;;;30.50;25.50;;;;;7.63;73.57;101869.56;4818605;29;47223;-80
2021/12/20 05:57:39;;;;;;;;;32.00;29.75;;;;;7.65;73.60;101871.22;4815538;29;45996;-79
2021/12/20 06:00:20;;;;;;;;;29.00;22.50;;;;;7.26;73.81;101800.59;4859798;29;45902;-79
2021/12/20 06:03:02;;;;;;;;;25.25;21.50;;;;;7.63;73.70;101861.75;4863627;28;47789;-79
2021/12/20 06:09:08;;;;;;;;;26.50;21.50;;;;;7.51;73.63;101837.84;4820618;29;45972;-81
2021/12/20 06:11:38;;;;;;;;;28.50;24.50;;;;;7.55;73.72;101842.06;4850877;29;45751;-80
2021/12/20 06:14:03;;;;;;;;;31.25;22.00;;;;;7.59;73.38;101848.00;4899536;28;46949;-80
2021/12/20 06:16:48;;;;;;;;;26.75;18.50;;;;;7.31;73.53;101813.44;4936258;28;46275;-79
2021/12/20 06:19:19;;;;;;;;;22.25;18.00;;;;;7.08;73.48;101767.41;4973407;28;45883;-80
2021/12/20 06:21:48;;;;;;;;;25.50;20.00;;;;;7.18;73.53;101794.81;4973818;28;45734;-80
2021/12/20 06:24:15;;;;;;;;;25.00;17.50;;;;;7.56;73.63;101868.94;4966633;28;46636;-81
2021/12/20 06:30:30;;;;;;;;;22.75;21.50;;;;;7.51;73.46;101850.03;5012061;28;45948;-81
2021/12/20 06:32:55;;;;;;;;;26.75;17.75;;;;;7.32;73.63;101826.44;5013002;28;45979;-79
2021/12/20 06:35:30;;;;;;;;;23.25;18.75;;;;;7.56;73.50;101876.78;5012969;28;45675;-80
2021/12/20 06:38:00;;;;;;;;;22.25;19.00;;;;;7.59;73.36;101880.13;5012518;28;46248;-79
2021/12/20 06:40:27;;;;;;;;;24.25;20.75;;;;;7.34;73.63;101831.59;5013648;28;45595;-80
2021/12/20 06:42:53;;;;;;;;;19.50;16.25;;;;;7.27;73.42;101827.50;5014508;28;45774;-79
2021/12/20 06:45:18;;;;;;;;;19.50;17.00;;;;;7.32;73.18;101839.47;5062630;27;45502;-80
2021/12/20 06:47:44;;;;;;;;;15.50;14.00;;;;;7.54;73.15;101866.44;5116422;27;45721;-81
2021/12/20 06:50:12;;;;;;;;;19.50;16.00;;;;;7.33;73.12;101842.94;5116616;27;45748;-80
2021/12/20 06:52:37;;;;;;;;;18.25;17.50;;;;;7.44;73.24;101864.22;5116485;27;45774;-81
2021/12/20 06:55:06;;;;;;;;;18.25;17.75;;;;;7.44;73.29;101856.41;5116258;27;45705;-81
2021/12/20 06:57:31;;;;;;;;;19.25;15.25;;;;;7.66;73.16;101901.63;5116152;27;46103;-79
2021/12/20 07:00:23;;;;;;;;;;;;;;;;;;;;;
2021/12/20 07:03:28;;;;;;;;;;;;;;;;;;;;;
2021/12/20 07:08:56;;;;;;;;;23.75;21.00;;;;;6.95;72.92;101807.88;5093058;27;46101;-80
2021/12/20 07:11:31;;;;;;;;;24.25;21.50;;;;;7.58;72.85;101909.72;5092736;27;45630;-80
2021/12/20 07:14:00;;;;;;;;;27.75;22.50;;;;;7.36;73.00;101859.28;5092637;27;45642;-79
2021/12/20 07:16:25;;;;;;;;;25.00;19.25;;;;;7.30;72.80;101867.34;5074924;27;48012;-80
2021/12/20 07:18:51;;;;;;;;;19.00;17.25;;;;;7.36;72.87;101872.31;5093016;27;48114;-80
2021/12/20 07:21:20;;;;;;;;;25.25;15.50;;;;;7.50;73.03;101898.72;5075651;27;45579;-81
2021/12/20 07:23:46;;;;;;;;;21.75;18.25;;;;;7.48;72.83;101887.50;5072968;27;45805;-81
2021/12/20 07:26:15;;;;;;;;;23.25;20.00;;;;;7.41;72.84;101872.16;5092646;27;46519;-80
2021/12/20 07:28:44;;;;;;;;;26.75;17.75;;;;;7.52;72.81;101904.75;5092833;27;46435;-80
2021/12/20 07:31:11;;;;;;;;;22.00;21.00;;;;;7.51;72.70;101902.19;5092866;27;45943;-80
2021/12/20 07:33:37;;;;;;;;;32.00;21.75;;;;;7.47;72.72;101885.81;5075958;27;45569;-81
2021/12/20 07:36:04;;;;;;;;;24.75;21.25;;;;;7.45;72.69;101879.78;5092180;27;46592;-81
2021/12/20 07:38:35;;;;;;;;;23.50;18.50;;;;;7.41;72.84;101880.81;5092737;27;45758;-82
2021/12/20 07:41:05;;;;;;;;;27.50;24.00;;;;;7.53;72.67;101902.97;5092525;27;46105;-80
2021/12/20 07:43:42;;;;;;;;;25.25;22.00;;;;;7.54;73.07;101908.16;5093310;27;45570;-80
2021/12/20 07:46:07;;;;;;;;;31.00;22.25;;;;;7.55;72.67;101909.00;5096771;27;47164;-81
2021/12/20 07:48:33;;;;;;;;;26.00;21.50;;;;;7.53;72.75;101900.38;5115491;27;46023;-81
2021/12/20 07:51:01;;;;;;;;;31.00;22.50;;;;;7.58;72.82;101899.28;5119313;27;45678;-80
2021/12/20 07:53:57;;;;;;;;;34.25;23.50;;;;;7.58;72.65;101899.28;5117303;27;46039;-81
2021/12/20 07:56:22;;;;;;;;;30.00;22.75;;;;;7.62;72.56;101904.38;5075930;28;45671;-81
2021/12/20 07:58:49;;;;;;;;;18.00;13.00;;;;;7.53;72.75;101882.13;5075747;28;46526;-80
2021/12/20 08:01:16;;;;;;;;;29.50;18.75;;;;;7.52;72.67;101885.63;5075961;28;45525;-82
2021/12/20 08:03:42;;;;;;;;;19.50;16.00;;;;;7.60;72.59;101912.28;5075848;28;45556;-81
2021/12/20 08:06:11;;;;;;;;;22.75;19.00;;;;;7.56;72.37;101906.31;5075629;28;46653;-80
2021/12/20 08:08:37;;;;;;;;;27.00;19.00;;;;;7.57;72.64;101907.16;5076008;28;47256;-81
2021/12/20 08:11:03;;;;;;;;;23.50;19.50;;;;;7.56;72.55;101908.06;5076417;28;45812;-80
2021/12/20 08:13:35;;;;;;;;;28.50;24.25;;;;;7.50;72.53;101892.69;5059008;28;45821;-80
2021/12/20 08:16:01;;;;;;;;;28.50;22.00;;;;;7.57;72.73;101897.59;5058850;28;47340;-80
2021/12/20 08:18:30;;;;;;;;;23.00;18.50;;;;;7.58;72.46;101908.88;5075228;28;47426;-81
2021/12/20 08:20:55;;;;;;;;;27.75;26.00;;;;;7.54;72.51;101902.06;5075172;28;46083;-80
2021/12/20 08:23:28;;;;;;;;;21.25;18.75;;;;;7.56;72.47;101903.69;5075876;28;45564;-81
2021/12/20 08:29:15;;;;;;;;;28.25;23.50;;;;;7.57;72.43;101904.56;5075179;28;45675;-80
2021/12/20 08:31:41;;;;;;;;;28.75;23.25;;;;;7.68;72.40;101925.00;5058202;28;45771;-80
2021/12/20 08:34:06;;;;;;;;;21.25;19.00;;;;;7.60;72.50;101925.31;5111054;27;45861;-80
2021/12/20 08:36:40;;;;;;;;;28.25;22.25;;;;;7.70;72.25;101934.50;5116660;27;47098;-80
2021/12/20 08:39:08;;;;;;;;;24.75;19.00;;;;;7.65;72.32;101912.09;5116628;27;47825;-79
2021/12/20 08:44:56;;;;;;;;;34.00;25.75;;;;;7.51;72.21;101902.19;5118345;27;45694;-79
2021/12/20 08:47:24;;;;;;;;;28.25;22.25;;;;;7.71;72.20;101946.63;5118685;27;46380;-80
2021/12/20 08:50:11;;;;;;;;;33.25;23.00;;;;;7.71;72.24;101937.97;5117964;27;46088;-80
2021/12/20 08:52:39;;;;;;;;;25.50;23.25;;;;;7.33;72.04;101875.06;5117867;27;45662;-83
2021/12/20 08:55:06;;;;;;;;;25.50;22.00;;;;;7.59;72.19;101926.22;5120061;27;45560;-78
2021/12/20 09:00:55;;;;;;;;;30.25;22.00;;;;;7.68;72.19;101946.72;5117078;27;46155;-80
2021/12/20 09:03:22;;;;;;;;;26.50;22.50;;;;;7.58;71.96;101927.13;5117628;27;45645;-80
2021/12/20 09:05:48;;;;;;;;;25.50;19.00;;;;;7.69;71.90;101956.25;5116604;27;45881;-78
2021/12/20 09:08:16;;;;;;;;;26.25;18.00;;;;;7.65;71.81;101943.41;5117575;27;46588;-79
2021/12/20 09:10:42;;;;;;;;;24.00;21.50;;;;;7.64;71.72;101941.69;5117350;27;46139;-79
2021/12/20 09:16:30;;;;;;;;;28.25;20.25;;;;;7.59;71.84;101929.69;5117297;27;45652;-80
2021/12/20 09:18:56;;;;;;;;;23.75;20.25;;;;;7.69;71.87;101943.22;5118029;27;46859;-81
2021/12/20 09:21:22;;;;;;;;;27.00;23.00;;;;;7.73;71.51;101939.59;5117921;27;46058;-77
2021/12/20 09:23:47;;;;;;;;;29.25;23.75;;;;;7.71;71.60;101937.97;5117631;27;45640;-77
2021/12/20 09:26:14;;;;;;;;;28.50;23.50;;;;;7.78;71.84;101953.31;5117303;27;45667;-77
2021/12/20 09:28:40;;;;;;;;;30.00;22.00;;;;;7.80;71.51;101950.66;5117391;27;46844;-77
2021/12/20 09:31:07;;;;;;;;;21.00;18.75;;;;;7.81;71.49;101936.69;5117765;27;45698;-76
2021/12/20 09:33:33;;;;;;;;;28.25;19.25;;;;;7.88;71.54;101948.59;5118440;27;45571;-76
2021/12/20 09:36:00;;;;;;;;;25.25;20.00;;;;;7.79;71.49;101934.13;5119667;27;45766;-76
2021/12/20 09:38:28;;;;;;;;;23.00;19.25;;;;;7.93;71.50;101962.31;5119189;27;46788;-78
2021/12/20 09:47:03;;;;;;;;;16.00;11.50;;;;;7.94;71.29;101948.34;5119154;27;45614;-77
2021/12/20 09:49:30;;;;;;;;;27.75;22.00;;;;;7.95;71.17;101952.66;5115621;27;48600;-78
2021/12/20 09:51:58;;;;;;;;;23.50;20.25;;;;;7.98;71.26;101952.56;5116600;27;46161;-75
2021/12/20 09:54:24;;;;;;;;;31.00;22.75;;;;;7.93;71.00;101941.44;5116803;27;45562;-76
2021/12/20 09:56:53;;;;;;;;;26.75;26.00;;;;;8.01;71.09;101948.06;5117013;27;45724;-75
2021/12/20 09:59:20;;;;;;;;;23.50;20.50;;;;;8.02;71.02;101948.91;5117296;27;46357;-75
2021/12/20 10:01:49;;;;;;;;;32.75;23.25;;;;;8.02;71.04;101954.13;5118297;27;46423;-77
2021/12/20 10:04:15;;;;;;;;;26.75;21.00;;;;;8.04;70.98;101960.16;5119105;27;45521;-76
2021/12/20 10:06:42;;;;;;;;;23.50;20.00;;;;;8.04;70.83;101956.69;5121263;27;45499;-76
2021/12/20 10:09:14;;;;;;;;;28.50;26.00;;;;;8.07;70.77;101959.16;5121893;27;45675;-74
2021/12/20 10:11:41;;;;;;;;;27.00;22.00;;;;;8.05;70.65;101950.53;5118826;27;46288;-74
2021/12/20 10:14:13;;;;;;;;;31.75;25.75;;;;;7.99;70.80;101951.63;5104787;27;45880;-76
2021/12/20 10:16:41;;;;;;;;;26.25;23.00;;;;;8.05;70.68;101950.53;5122550;27;45583;-75
2021/12/20 10:19:27;;;;;;;;;21.25;18.50;;;;;7.89;70.55;101932.03;5121145;27;45542;-77
2021/12/20 10:21:54;;;;;;;;;18.75;16.25;;;;;8.08;70.41;101958.25;5119849;27;46374;-76
2021/12/20 10:24:32;;;;;;;;;27.50;24.25;;;;;8.09;70.54;101962.59;5121178;27;45925;-76
2021/12/20 10:26:58;;;;;;;;;28.50;21.75;;;;;7.99;70.56;101941.19;5120431;27;45535;-74
2021/12/20 10:29:24;;;;;;;;;20.75;19.00;;;;;7.94;70.35;101927.47;5120088;27;46639;-76
2021/12/20 10:31:50;;;;;;;;;24.50;19.25;;;;;8.06;70.33;101955.69;5119350;27;47116;-75
2021/12/20 10:34:19;;;;;;;;;22.25;17.00;;;;;7.97;70.32;101943.03;5118442;27;45887;-76
2021/12/20 10:36:55;;;;;;;;;24.50;20.00;;;;;8.08;70.15;101959.13;5116993;27;45606;-74
2021/12/20 10:39:41;;;;;;;;;23.75;15.75;;;;;7.82;70.30;101909.72;5114895;27;47892;-75
2021/12/20 10:42:23;;;;;;;;;23.50;20.00;;;;;8.03;70.37;101929.75;5115871;27;46250;-75
2021/12/20 10:45:14;;;;;;;;;23.00;15.50;;;;;8.10;69.92;101944.22;5116376;27;45872;-75
2021/12/20 10:47:42;;;;;;;;;21.00;18.50;;;;;8.07;70.05;101938.28;5116030;27;45544;-75
2021/12/20 10:50:30;;;;;;;;;23.25;18.75;;;;;8.09;70.12;101941.69;5116337;27;45971;-76
2021/12/20 10:53:17;;;;;;;;;21.75;15.75;;;;;8.10;70.03;101939.00;5115786;27;47330;-76
2021/12/20 10:55:46;;;;;;;;;18.25;12.00;;;;;8.10;69.91;101944.22;5115932;27;45791;-75
2021/12/20 10:58:29;;;;;;;;;19.50;14.50;;;;;8.10;70.16;101940.78;5117085;27;45760;-74
2021/12/20 11:04:00;;;;;;;;;18.50;15.75;;;;;8.15;69.78;101942.28;5073322;28;46098;-75
2021/12/20 11:06:40;;;;;;;;;16.25;15.00;;;;;8.18;69.97;101936.97;5072334;28;45557;-74
2021/12/20 11:09:14;;;;;;;;;22.50;18.00;;;;;8.15;69.85;101928.41;5072480;28;45822;-75
2021/12/20 11:15:10;;;;;;;;;14.00;13.00;;;;;8.17;69.75;101929.19;5072326;28;46149;-77
2021/12/20 11:17:41;;;;;;;;;15.00;13.75;;;;;8.16;69.78;101930.09;5071796;28;45820;-77
2021/12/20 11:20:08;;;;;;;;;15.25;14.00;;;;;8.13;69.71;101927.63;5072471;28;45744;-78
2021/12/20 11:22:35;;;;;;;;;19.50;15.25;;;;;8.13;69.66;101928.47;5072067;28;46861;-75
2021/12/20 11:25:11;;;;;;;;;14.50;12.25;;;;;7.99;69.50;101908.13;5071989;28;46032;-78
2021/12/20 11:30:58;;;;;;;;;14.50;13.50;;;;;8.11;69.32;101921.59;5062530;28;45927;-77
2021/12/20 11:33:23;;;;;;;;;10.75;9.50;;;;;8.07;69.42;101906.97;5054797;28;47684;-75
2021/12/20 11:35:49;;;;;;;;;13.25;11.50;;;;;8.04;69.35;101900.13;5071742;28;45796;-76
2021/12/20 11:38:14;;;;;;;;;13.75;10.00;;;;;8.10;69.38;101904.25;5071508;28;45669;-76
2021/12/20 11:40:43;;;;;;;;;15.25;13.25;;;;;8.12;69.19;101910.25;5087578;27;45679;-75
2021/12/20 11:46:59;;;;;;;;;13.25;10.75;;;;;8.13;69.04;101904.97;5114543;27;46099;-76
2021/12/20 11:49:26;;;;;;;;;12.00;10.00;;;;;8.15;69.04;101897.91;5071776;28;45886;-76
2021/12/20 11:52:12;;;;;;;;;11.00;9.50;;;;;8.15;69.02;101895.31;5071751;28;45919;-78
2021/12/20 11:54:55;;;;;;;;;16.75;13.25;;;;;8.16;68.91;101893.53;5054685;28;46009;-74
2021/12/20 11:57:28;;;;;;;;;13.75;13.00;;;;;8.17;68.88;101892.63;5071194;28;46734;-76
2021/12/20 11:59:57;;;;;;;;;15.00;13.00;;;;;8.15;68.92;101882.25;5071422;28;45750;-76
2021/12/20 12:02:38;;;;;;;;;12.00;11.50;;;;;8.16;68.89;101883.09;5071414;28;45551;-76
2021/12/20 12:05:11;;;;;;;;;14.00;11.50;;;;;8.16;68.89;101875.28;5071566;28;45687;-77
2021/12/20 12:07:38;;;;;;;;;15.25;13.00;;;;;8.11;68.95;101862.41;5054538;28;46348;-76
2021/12/20 12:10:12;;;;;;;;;14.75;14.25;;;;;8.11;68.64;101841.53;5054811;28;45774;-76
2021/12/20 12:12:42;;;;;;;;;15.50;12.00;;;;;8.10;68.65;101850.25;5071097;28;45934;-77
2021/12/20 12:15:21;;;;;;;;;17.25;11.25;;;;;8.18;68.76;101865.63;5071308;28;46275;-76
2021/12/20 12:18:05;;;;;;;;;16.50;14.00;;;;;8.14;68.44;101853.63;5071381;28;46218;-75
2021/12/20 12:20:42;;;;;;;;;18.00;15.50;;;;;8.16;68.70;101850.03;5054386;28;45788;-77
2021/12/20 12:23:13;;;;;;;;;14.00;11.25;;;;;8.15;68.47;101848.31;5071643;28;45790;-76
2021/12/20 12:25:49;;;;;;;;;15.00;13.50;;;;;8.17;68.68;101854.34;5080436;27;46641;-74
2021/12/20 12:28:17;;;;;;;;;14.00;12.50;;;;;8.19;68.67;101849.91;5115332;27;46245;-77
2021/12/20 12:30:55;;;;;;;;;16.75;14.25;;;;;8.21;68.48;101847.22;5115097;27;45952;-77
2021/12/20 12:33:22;;;;;;;;;17.50;15.00;;;;;8.20;68.58;101848.16;5114111;27;45905;-74
2021/12/20 12:35:52;;;;;;;;;19.25;15.00;;;;;8.21;68.46;101855.91;5116884;27;46542;-78
2021/12/20 12:38:17;;;;;;;;;16.75;14.00;;;;;8.23;68.40;101853.22;5117214;27;46423;-75
2021/12/20 12:40:51;;;;;;;;;16.50;13.50;;;;;8.14;68.58;101833.59;5117584;27;45697;-76
2021/12/20 12:43:26;;;;;;;;;21.00;14.25;;;;;8.23;68.43;101859.31;5117588;27;45552;-77
2021/12/20 12:45:55;;;;;;;;;17.50;14.00;;;;;8.24;68.41;101855.78;5117002;27;45614;-77
2021/12/20 12:48:46;;;;;;;;;21.75;14.75;;;;;8.26;68.42;101859.16;5117318;27;46191;-77
2021/12/20 12:51:20;;;;;;;;;17.25;14.50;;;;;8.27;67.90;101858.25;5117511;27;45571;-77
2021/12/20 12:53:47;;;;;;;;;18.00;14.00;;;;;8.29;68.22;101842.53;5117365;27;45580;-75
2021/12/20 12:56:27;;;;;;;;;15.00;12.00;;;;;8.29;68.32;101842.53;5115176;27;48305;-77